Time;durP1;ratioP1;P1;durP2;ratioP2;P2;SDS_P1;SDS_P2;PMS_P1;PMS_P2;Temp;Humidity;BMP_temperature;BMP_pressure;BME280_temperature;BME280_humidity;BME280_pressure;Samples;Min_cycle;Max_cycle;Signal;HPM_P1;HPM_P2
2022/08/11 00:02:06;;;;;;;0.83;0.83;;;;;;;;;;5053512;28;20586;-74
2022/08/11 00:04:35;;;;;;;1.27;1.27;;;;;;;;;;5053988;28;20426;-74
2022/08/11 00:07:02;;;;;;;1.43;1.43;;;;;;;;;;5053164;28;20438;-73
2022/08/11 00:09:34;;;;;;;1.00;1.00;;;;;;;;;;5054937;28;20430;-74
2022/08/11 00:12:01;;;;;;;0.90;0.90;;;;;;;;;;5070886;28;20429;-74
2022/08/11 00:14:29;;;;;;;1.10;1.00;;;;;;;;;;5063076;28;20434;-74
2022/08/11 00:17:02;;;;;;;1.13;1.13;;;;;;;;;;5060463;28;20518;-74
2022/08/11 00:19:30;;;;;;;4.70;1.40;;;;;;;;;;5058084;28;20437;-74
2022/08/11 00:21:57;;;;;;;1.00;1.00;;;;;;;;;;5052253;28;20764;-74
2022/08/11 00:24:24;;;;;;;1.57;1.47;;;;;;;;;;5058689;28;21016;-74
2022/08/11 00:26:51;;;;;;;4.87;1.23;;;;;;;;;;5053957;28;20441;-74
2022/08/11 00:29:17;;;;;;;0.90;0.90;;;;;;;;;;5052781;28;20418;-74
2022/08/11 00:31:49;;;;;;;1.17;1.17;;;;;;;;;;5052939;28;20449;-74
2022/08/11 00:34:17;;;;;;;1.50;1.50;;;;;;;;;;5054321;28;20422;-74
2022/08/11 00:37:03;;;;;;;1.60;1.50;;;;;;;;;;5059623;28;20929;-74
2022/08/11 00:39:31;;;;;;;1.57;1.57;;;;;;;;;;5061324;28;20426;-75
2022/08/11 00:42:06;;;;;;;1.20;1.20;;;;;;;;;;5052801;28;20478;-74
2022/08/11 00:44:32;;;;;;;1.23;1.23;;;;;;;;;;5064835;28;20461;-74
2022/08/11 00:47:16;;;;;;;1.10;1.10;;;;;;;;;;5066034;28;20590;-74
2022/08/11 00:49:46;;;;;;;1.50;1.40;;;;;;;;;;5070892;28;21031;-74
2022/08/11 00:52:31;;;;;;;3.80;0.90;;;;;;;;;;5054454;28;20444;-74
2022/08/11 00:55:16;;;;;;;2.50;1.03;;;;;;;;;;5055012;28;20557;-74
2022/08/11 00:58:13;;;;;;;2.37;1.20;;;;;;;;;;5054085;28;20495;-74
2022/08/11 01:00:58;;;;;;;1.07;1.07;;;;;;;;;;5043721;28;20549;-74
2022/08/11 01:03:39;;;;;;;1.47;1.10;;;;;;;;;;5052289;28;20438;-74
2022/08/11 01:06:24;;;;;;;1.43;1.43;;;;;;;;;;5038919;28;20914;-74
2022/08/11 01:09:12;;;;;;;1.37;1.27;;;;;;;;;;5056163;28;20993;-74
2022/08/11 01:11:41;;;;;;;2.00;1.60;;;;;;;;;;5050440;28;20951;-74
2022/08/11 01:14:22;;;;;;;1.20;1.20;;;;;;;;;;5055075;28;20520;-74
2022/08/11 01:16:56;;;;;;;10.50;1.53;;;;;;;;;;5054814;28;20444;-74
2022/08/11 01:19:38;;;;;;;1.57;1.47;;;;;;;;;;5060131;28;20928;-74
2022/08/11 01:22:16;;;;;;;2.20;1.50;;;;;;;;;;5062945;28;20876;-74
2022/08/11 01:24:45;;;;;;;1.97;1.00;;;;;;;;;;5052935;28;20426;-74
2022/08/11 01:27:24;;;;;;;1.40;1.40;;;;;;;;;;5051099;28;20922;-74
2022/08/11 01:29:59;;;;;;;1.40;1.40;;;;;;;;;;5061551;28;20428;-74
2022/08/11 01:32:40;;;;;;;2.20;1.27;;;;;;;;;;5059484;28;20429;-74
2022/08/11 01:35:20;;;;;;;2.10;1.10;;;;;;;;;;5055779;28;20418;-74
2022/08/11 01:37:52;;;;;;;2.83;1.57;;;;;;;;;;5051048;28;20434;-74
2022/08/11 01:40:30;;;;;;;2.10;1.23;;;;;;;;;;5051396;28;20430;-74
2022/08/11 01:45:53;;;;;;;1.20;1.20;;;;;;;;;;5042742;28;20410;-73
2022/08/11 01:48:41;;;;;;;1.67;1.30;;;;;;;;;;5039836;28;20473;-74
2022/08/11 01:51:13;;;;;;;1.00;1.00;;;;;;;;;;5052833;28;20434;-74
2022/08/11 01:53:42;;;;;;;3.47;1.30;;;;;;;;;;5052037;28;20595;-73
2022/08/11 01:56:11;;;;;;;2.60;1.43;;;;;;;;;;5055342;28;20450;-74
2022/08/11 01:58:48;;;;;;;1.20;1.20;;;;;;;;;;5052923;28;20552;-73
2022/08/11 02:01:15;;;;;;;1.47;1.37;;;;;;;;;;5051455;28;20512;-73
2022/08/11 02:03:46;;;;;;;1.43;1.10;;;;;;;;;;5052197;28;20432;-73
2022/08/11 02:09:25;;;;;;;2.77;1.07;;;;;;;;;;5051881;28;20456;-74
2022/08/11 02:11:55;;;;;;;4.13;1.13;;;;;;;;;;5051129;28;20429;-74
2022/08/11 02:14:21;;;;;;;1.27;1.27;;;;;;;;;;5059990;28;20433;-74
2022/08/11 02:16:52;;;;;;;2.20;1.13;;;;;;;;;;5057788;28;20414;-74
2022/08/11 02:25:03;;;;;;;1.03;1.03;;;;;;;;;;5051445;28;20420;-74
2022/08/11 02:27:39;;;;;;;6.33;0.97;;;;;;;;;;5062882;28;20454;-74
2022/08/11 02:30:07;;;;;;;1.47;1.37;;;;;;;;;;5057817;28;20794;-74
2022/08/11 02:33:23;;;;;;;3.27;1.23;;;;;;;;;;5057270;28;20426;-73
2022/08/11 02:35:56;;;;;;;1.50;1.50;;;;;;;;;;5015838;28;20428;-74
2022/08/11 02:38:27;;;;;;;5.73;1.50;;;;;;;;;;5034655;28;20431;-74
2022/08/11 02:44:10;;;;;;;5.00;1.67;;;;;;;;;;5065312;28;20955;-74
2022/08/11 02:46:47;;;;;;;0.90;0.90;;;;;;;;;;5064599;28;20471;-73
2022/08/11 02:52:30;;;;;;;1.50;1.43;;;;;;;;;;5055459;28;20425;-74
2022/08/11 02:55:00;;;;;;;1.40;1.40;;;;;;;;;;5053733;28;20474;-72
2022/08/11 02:57:34;;;;;;;1.70;1.70;;;;;;;;;;5062414;28;20430;-74
2022/08/11 03:00:06;;;;;;;1.00;1.00;;;;;;;;;;5055862;28;20446;-74
2022/08/11 03:02:52;;;;;;;1.17;1.17;;;;;;;;;;5060399;28;20480;-74
2022/08/11 03:05:19;;;;;;;1.00;1.00;;;;;;;;;;5054369;28;20430;-74
2022/08/11 03:08:05;;;;;;;1.60;1.50;;;;;;;;;;5062737;28;20441;-74
2022/08/11 03:16:43;;;;;;;1.20;0.83;;;;;;;;;;5055387;28;20418;-74
2022/08/11 03:19:22;;;;;;;1.47;1.10;;;;;;;;;;5054702;28;20429;-74
2022/08/11 03:22:07;;;;;;;3.03;1.30;;;;;;;;;;5055439;28;20469;-74
2022/08/11 03:24:38;;;;;;;1.07;1.07;;;;;;;;;;5054709;28;20433;-74
2022/08/11 03:27:09;;;;;;;1.43;1.43;;;;;;;;;;5055864;28;20425;-74
2022/08/11 03:29:59;;;;;;;1.03;0.93;;;;;;;;;;5061569;28;20505;-74
2022/08/11 03:32:32;;;;;;;5.73;1.43;;;;;;;;;;5053371;28;20433;-74
2022/08/11 03:35:01;;;;;;;0.80;0.80;;;;;;;;;;5068556;28;20425;-74
2022/08/11 03:43:07;;;;;;;0.83;0.83;;;;;;;;;;5062515;28;20843;-74
2022/08/11 03:45:36;;;;;;;1.53;1.53;;;;;;;;;;5065607;28;20436;-74
2022/08/11 03:48:08;;;;;;;1.83;1.57;;;;;;;;;;5065535;28;20799;-74
2022/08/11 03:50:46;;;;;;;1.73;1.67;;;;;;;;;;5053917;28;20507;-74
2022/08/11 03:53:15;;;;;;;1.30;1.30;;;;;;;;;;5053561;28;20493;-74
2022/08/11 03:55:47;;;;;;;1.50;1.50;;;;;;;;;;5063754;28;20477;-74
2022/08/11 03:58:16;;;;;;;7.00;1.80;;;;;;;;;;5053948;28;20469;-74
2022/08/11 04:00:58;;;;;;;2.87;1.57;;;;;;;;;;5048206;28;20572;-74
2022/08/11 04:03:33;;;;;;;1.00;1.00;;;;;;;;;;5057592;28;20499;-74
2022/08/11 04:06:18;;;;;;;1.00;1.00;;;;;;;;;;5044513;28;20430;-74
2022/08/11 04:09:03;;;;;;;1.33;1.20;;;;;;;;;;5064448;28;20516;-74
2022/08/11 04:11:41;;;;;;;7.80;1.87;;;;;;;;;;5057152;28;20484;-74
2022/08/11 04:17:29;;;;;;;1.60;1.50;;;;;;;;;;5053353;28;20429;-74
2022/08/11 04:20:16;;;;;;;1.57;1.47;;;;;;;;;;5059299;28;20427;-73
2022/08/11 04:22:45;;;;;;;3.57;2.10;;;;;;;;;;5052033;28;20490;-74
2022/08/11 04:25:43;;;;;;;6.67;1.70;;;;;;;;;;5053480;28;20563;-74
2022/08/11 04:28:24;;;;;;;4.37;1.93;;;;;;;;;;5050906;28;20446;-74
2022/08/11 04:30:50;;;;;;;1.00;1.00;;;;;;;;;;5061270;28;20935;-74
2022/08/11 04:33:15;;;;;;;1.40;1.40;;;;;;;;;;5054856;28;20427;-74
2022/08/11 04:36:09;;;;;;;1.57;1.57;;;;;;;;;;5059624;28;20222;-74
2022/08/11 04:38:35;;;;;;;2.77;2.37;;;;;;;;;;5052483;28;20274;-73
2022/08/11 04:41:13;;;;;;;2.40;1.83;;;;;;;;;;5055834;28;20462;-74
2022/08/11 04:43:57;;;;;;;1.40;1.40;;;;;;;;;;5061176;28;20433;-74
2022/08/11 04:46:42;;;;;;;1.57;1.33;;;;;;;;;;5060829;28;20442;-74
2022/08/11 05:04:00;;;;;;;1.40;1.40;;;;;;;;;;5063018;28;20943;-79
2022/08/11 05:06:47;;;;;;;1.77;1.77;;;;;;;;;;5047005;28;20423;-76
2022/08/11 05:09:15;;;;;;;3.80;1.50;;;;;;;;;;5051156;28;20442;-71
2022/08/11 05:12:01;;;;;;;1.87;1.67;;;;;;;;;;5052482;28;20440;-78
2022/08/11 05:37:08;;;;;;;1.37;1.37;;;;;;;;;;5052253;28;20514;-73
2022/08/11 05:56:29;;;;;;;6.00;1.67;;;;;;;;;;5052850;28;20488;-73
2022/08/11 05:58:57;;;;;;;2.53;2.43;;;;;;;;;;5051587;28;20418;-73
2022/08/11 06:01:24;;;;;;;1.40;1.30;;;;;;;;;;5053585;28;20462;-73
2022/08/11 06:06:40;;;;;;;1.80;1.70;;;;;;;;;;5057559;28;20467;-73
2022/08/11 06:09:07;;;;;;;1.53;1.47;;;;;;;;;;5053412;28;20433;-74
2022/08/11 06:11:41;;;;;;;1.63;1.53;;;;;;;;;;5054876;28;20422;-72
2022/08/11 06:14:09;;;;;;;4.67;1.87;;;;;;;;;;5050949;28;20469;-73
2022/08/11 06:16:36;;;;;;;1.37;1.27;;;;;;;;;;5055695;28;20418;-72
2022/08/11 06:19:02;;;;;;;1.53;1.53;;;;;;;;;;5053476;28;20441;-73
2022/08/11 06:21:28;;;;;;;1.20;1.20;;;;;;;;;;5055505;28;20517;-74
2022/08/11 06:23:55;;;;;;;10.57;1.77;;;;;;;;;;5053314;28;20761;-72
2022/08/11 06:26:21;;;;;;;1.93;1.93;;;;;;;;;;5053529;28;20539;-73
2022/08/11 06:28:48;;;;;;;2.03;1.30;;;;;;;;;;5055604;28;20429;-74
2022/08/11 06:31:18;;;;;;;0.93;0.93;;;;;;;;;;5053153;28;20434;-73
2022/08/11 06:33:45;;;;;;;4.33;1.67;;;;;;;;;;5055434;28;20592;-72
2022/08/11 06:36:15;;;;;;;3.73;1.60;;;;;;;;;;5055307;28;20419;-72
2022/08/11 06:38:44;;;;;;;1.73;1.63;;;;;;;;;;5057025;28;20453;-72
2022/08/11 06:41:42;;;;;;;1.30;1.30;;;;;;;;;;5052819;28;20879;-72
2022/08/11 06:44:11;;;;;;;4.30;1.23;;;;;;;;;;5035208;28;20905;-72
2022/08/11 06:46:41;;;;;;;5.93;1.60;;;;;;;;;;5054981;28;20430;-72
2022/08/11 06:52:00;;;;;;;1.93;1.70;;;;;;;;;;5054728;28;20430;-66
2022/08/11 06:54:26;;;;;;;1.27;1.27;;;;;;;;;;5041012;28;20527;-66
2022/08/11 07:02:27;;;;;;;2.10;2.00;;;;;;;;;;5059849;28;20480;-67
2022/08/11 07:05:00;;;;;;;4.43;1.83;;;;;;;;;;5060153;28;20414;-65
2022/08/11 07:16:01;;;;;;;1.70;1.60;;;;;;;;;;5055056;28;20449;-66
2022/08/11 07:30:07;;;;;;;1.70;1.60;;;;;;;;;;5034315;28;20499;-67
2022/08/11 07:32:36;;;;;;;4.57;1.80;;;;;;;;;;5046693;28;20939;-66
2022/08/11 07:35:13;;;;;;;1.87;1.77;;;;;;;;;;5053848;28;20445;-67
2022/08/11 07:37:44;;;;;;;2.47;2.30;;;;;;;;;;5054810;28;20437;-67
2022/08/11 07:40:11;;;;;;;2.07;2.07;;;;;;;;;;5053554;28;20414;-68
2022/08/11 07:42:39;;;;;;;2.30;1.70;;;;;;;;;;5054491;28;20482;-66
2022/08/11 07:53:25;;;;;;;2.13;1.17;;;;;;;;;;5053461;28;20425;-66
2022/08/11 07:55:52;;;;;;;1.60;1.60;;;;;;;;;;5053206;28;20468;-67
2022/08/11 08:17:51;;;;;;;1.70;1.70;;;;;;;;;;5033417;28;20849;-66
2022/08/11 08:20:18;;;;;;;2.87;1.77;;;;;;;;;;5046534;28;20929;-66
2022/08/11 08:22:46;;;;;;;3.50;1.73;;;;;;;;;;5070971;28;20568;-66
2022/08/11 08:25:13;;;;;;;1.43;1.33;;;;;;;;;;5069738;28;20504;-67
2022/08/11 08:27:42;;;;;;;2.00;1.73;;;;;;;;;;5055811;28;20906;-67
2022/08/11 08:32:56;;;;;;;2.53;1.33;;;;;;;;;;5064975;28;20465;-67
2022/08/11 08:35:22;;;;;;;1.73;1.67;;;;;;;;;;5053224;28;20507;-67
2022/08/11 08:37:50;;;;;;;1.50;1.50;;;;;;;;;;5061705;28;20993;-66
2022/08/11 08:40:16;;;;;;;2.87;1.50;;;;;;;;;;5071442;28;20432;-66
2022/08/11 08:42:47;;;;;;;2.53;1.50;;;;;;;;;;5054555;28;20474;-66
2022/08/11 08:45:15;;;;;;;1.97;1.83;;;;;;;;;;5057522;28;20426;-67
2022/08/11 08:47:42;;;;;;;2.07;2.07;;;;;;;;;;5067569;28;20431;-67
2022/08/11 08:50:10;;;;;;;4.77;1.87;;;;;;;;;;5042553;28;20414;-67
2022/08/11 08:52:42;;;;;;;1.13;1.13;;;;;;;;;;5071094;28;20562;-66
2022/08/11 08:55:11;;;;;;;1.33;1.33;;;;;;;;;;5039943;28;20474;-74
2022/08/11 08:57:38;;;;;;;2.00;1.80;;;;;;;;;;5046191;28;20429;-74
2022/08/11 09:00:05;;;;;;;1.50;1.50;;;;;;;;;;5031608;28;20434;-74
2022/08/11 09:02:32;;;;;;;2.93;1.70;;;;;;;;;;5050801;28;20970;-74
2022/08/11 09:04:58;;;;;;;2.83;1.97;;;;;;;;;;5068732;28;20600;-74
2022/08/11 09:07:25;;;;;;;3.03;1.60;;;;;;;;;;5063348;28;20526;-74
2022/08/11 09:09:52;;;;;;;4.97;1.70;;;;;;;;;;5060082;28;20810;-75
2022/08/11 09:12:19;;;;;;;1.57;1.57;;;;;;;;;;5035038;28;20431;-74
2022/08/11 09:14:59;;;;;;;1.67;1.57;;;;;;;;;;5061766;28;20454;-73
2022/08/11 09:17:26;;;;;;;1.43;1.43;;;;;;;;;;5052467;28;20902;-73
2022/08/11 09:19:59;;;;;;;2.10;1.97;;;;;;;;;;5051201;28;20404;-73
2022/08/11 09:27:56;;;;;;;1.40;1.40;;;;;;;;;;5047222;28;20441;-73
2022/08/11 09:30:24;;;;;;;1.60;1.50;;;;;;;;;;5050430;28;20472;-73
2022/08/11 09:32:56;;;;;;;2.50;0.93;;;;;;;;;;5051359;28;20428;-74
2022/08/11 09:35:22;;;;;;;1.50;1.50;;;;;;;;;;5050019;28;20545;-74
2022/08/11 09:40:33;;;;;;;1.50;1.50;;;;;;;;;;5071190;28;20433;-73
2022/08/11 09:45:51;;;;;;;1.50;1.50;;;;;;;;;;5056137;28;20772;-73
2022/08/11 09:48:18;;;;;;;3.40;1.50;;;;;;;;;;5055654;28;20422;-73
2022/08/11 09:50:45;;;;;;;1.57;1.50;;;;;;;;;;5055692;28;20414;-73
2022/08/11 09:53:12;;;;;;;1.20;1.20;;;;;;;;;;5055114;28;20528;-73
2022/08/11 09:55:38;;;;;;;1.57;1.57;;;;;;;;;;5055315;28;20473;-73
2022/08/11 09:58:16;;;;;;;1.50;1.50;;;;;;;;;;5055002;28;20452;-74
2022/08/11 10:00:43;;;;;;;1.27;1.27;;;;;;;;;;5055549;28;20430;-73
2022/08/11 10:03:16;;;;;;;1.90;1.80;;;;;;;;;;5051799;28;20439;-75
2022/08/11 10:08:33;;;;;;;6.23;1.40;;;;;;;;;;5055112;28;20433;-74
2022/08/11 10:10:59;;;;;;;1.57;1.23;;;;;;;;;;5041435;28;20431;-75
2022/08/11 10:13:33;;;;;;;1.20;1.20;;;;;;;;;;5070940;28;20429;-73
2022/08/11 10:16:01;;;;;;;1.47;1.37;;;;;;;;;;5075425;28;20905;-74
2022/08/11 10:18:41;;;;;;;1.60;1.60;;;;;;;;;;5074785;28;20414;-74
2022/08/11 10:21:11;;;;;;;2.13;1.20;;;;;;;;;;5055257;28;20465;-74
2022/08/11 10:34:39;;;;;;;1.80;1.80;;;;;;;;;;5075073;28;20747;-75
2022/08/11 10:37:06;;;;;;;1.40;1.40;;;;;;;;;;5075437;28;20453;-74
2022/08/11 10:39:32;;;;;;;1.60;1.60;;;;;;;;;;5066381;28;20456;-75
2022/08/11 10:44:45;;;;;;;1.07;1.07;;;;;;;;;;5073112;28;20943;-74
2022/08/11 11:00:59;;;;;;;3.37;1.80;;;;;;;;;;5070364;28;20464;-77
2022/08/11 11:03:26;;;;;;;0.70;0.70;;;;;;;;;;5074955;28;20426;-74
2022/08/11 11:05:52;;;;;;;1.90;1.60;;;;;;;;;;5074193;28;20424;-74
2022/08/11 11:11:06;;;;;;;1.50;1.40;;;;;;;;;;5061777;28;20421;-74
2022/08/11 11:18:50;;;;;;;1.53;1.53;;;;;;;;;;5054155;28;20548;-74
2022/08/11 11:21:18;;;;;;;1.60;1.50;;;;;;;;;;5063197;28;20542;-74
2022/08/11 11:23:54;;;;;;;1.23;1.23;;;;;;;;;;5055188;28;20906;-74
2022/08/11 11:26:23;;;;;;;2.30;2.20;;;;;;;;;;5049116;28;20461;-74
2022/08/11 11:29:07;;;;;;;1.40;1.23;;;;;;;;;;5036596;28;20424;-73
2022/08/11 11:31:57;;;;;;;1.13;1.13;;;;;;;;;;5044691;28;20436;-73
2022/08/11 11:34:23;;;;;;;1.30;1.20;;;;;;;;;;5074175;28;20420;-74
2022/08/11 11:36:56;;;;;;;1.90;1.40;;;;;;;;;;5073370;28;20421;-73
2022/08/11 11:39:26;;;;;;;1.67;1.57;;;;;;;;;;5053231;28;20979;-74
2022/08/11 11:41:53;;;;;;;1.33;1.30;;;;;;;;;;5053069;28;20831;-74
2022/08/11 11:44:21;;;;;;;3.00;1.30;;;;;;;;;;5053777;28;20423;-75
2022/08/11 11:46:48;;;;;;;1.13;1.13;;;;;;;;;;5045371;28;20438;-74
2022/08/11 11:49:17;;;;;;;3.20;1.40;;;;;;;;;;5053236;28;20930;-73
2022/08/11 11:51:44;;;;;;;1.90;1.07;;;;;;;;;;5051831;28;20418;-74
2022/08/11 11:54:10;;;;;;;2.00;1.80;;;;;;;;;;5053338;28;20466;-72
2022/08/11 11:56:37;;;;;;;1.80;1.80;;;;;;;;;;5053154;28;20496;-69
2022/08/11 12:01:48;;;;;;;1.93;1.23;;;;;;;;;;5052848;28;20565;-72
2022/08/11 12:04:17;;;;;;;2.20;1.23;;;;;;;;;;5050813;28;20550;-70
2022/08/11 12:06:43;;;;;;;1.47;1.47;;;;;;;;;;5057998;28;20421;-69
2022/08/11 12:09:13;;;;;;;1.30;1.30;;;;;;;;;;5064071;28;20477;-70
2022/08/11 12:14:27;;;;;;;1.90;1.43;;;;;;;;;;5059282;28;20476;-73
2022/08/11 12:16:55;;;;;;;2.10;1.33;;;;;;;;;;5052284;28;20985;-74
2022/08/11 12:19:23;;;;;;;1.80;1.70;;;;;;;;;;5051805;28;20456;-74
2022/08/11 12:27:23;;;;;;;1.30;1.30;;;;;;;;;;5060259;28;20800;-73
2022/08/11 12:30:09;;;;;;;2.90;1.73;;;;;;;;;;5050898;28;20513;-74
2022/08/11 12:32:36;;;;;;;1.52;1.52;;;;;;;;;;5043764;28;20588;-75
2022/08/11 12:35:02;;;;;;;1.70;1.60;;;;;;;;;;5052364;28;20182;-74
2022/08/11 12:37:34;;;;;;;1.37;1.37;;;;;;;;;;5051606;28;20500;-74
2022/08/11 12:45:32;;;;;;;1.20;1.20;;;;;;;;;;5051165;28;20501;-73
2022/08/11 12:53:43;;;;;;;1.00;1.00;;;;;;;;;;5063720;28;21928;-72
2022/08/11 13:07:12;;;;;;;1.40;1.40;;;;;;;;;;5049467;28;20866;-73
2022/08/11 13:09:39;;;;;;;1.10;1.10;;;;;;;;;;5050718;28;20419;-73
2022/08/11 13:14:50;;;;;;;2.40;1.50;;;;;;;;;;5050695;28;20890;-73
2022/08/11 13:17:20;;;;;;;1.63;1.53;;;;;;;;;;5050458;28;20438;-73
2022/08/11 13:19:47;;;;;;;1.70;1.63;;;;;;;;;;5053287;28;20418;-70
2022/08/11 13:22:15;;;;;;;1.50;1.20;;;;;;;;;;5054581;28;20477;-72
2022/08/11 13:24:41;;;;;;;1.20;1.20;;;;;;;;;;5051245;28;20797;-73
2022/08/11 13:27:10;;;;;;;2.43;1.30;;;;;;;;;;5051557;28;20453;-73
2022/08/11 13:29:37;;;;;;;1.33;1.23;;;;;;;;;;5052898;28;20434;-72
2022/08/11 13:32:03;;;;;;;1.47;1.40;;;;;;;;;;5052325;28;20465;-70
2022/08/11 13:34:30;;;;;;;2.07;1.27;;;;;;;;;;5052506;28;20406;-71
2022/08/11 13:36:57;;;;;;;1.37;1.37;;;;;;;;;;5051973;28;20465;-72
2022/08/11 13:39:25;;;;;;;1.63;1.53;;;;;;;;;;5052430;28;20482;-73
2022/08/11 13:41:52;;;;;;;1.60;1.50;;;;;;;;;;5055264;28;20516;-73
2022/08/11 13:44:19;;;;;;;7.60;2.53;;;;;;;;;;5061505;28;20460;-74
2022/08/11 13:46:45;;;;;;;1.23;1.23;;;;;;;;;;5052937;28;20583;-75
2022/08/11 13:49:15;;;;;;;2.63;1.17;;;;;;;;;;5053261;28;20427;-70
2022/08/11 13:51:41;;;;;;;6.80;1.60;;;;;;;;;;5058492;28;20445;-71
2022/08/11 13:54:09;;;;;;;1.80;1.70;;;;;;;;;;5056831;28;20496;-70
2022/08/11 13:56:38;;;;;;;1.10;1.10;;;;;;;;;;5065637;28;20464;-72
2022/08/11 13:59:04;;;;;;;1.70;1.70;;;;;;;;;;5050295;28;20422;-70
2022/08/11 14:01:32;;;;;;;10.47;1.57;;;;;;;;;;5051182;28;20524;-72
2022/08/11 14:04:01;;;;;;;1.10;1.00;;;;;;;;;;5053651;28;20853;-72
2022/08/11 14:06:27;;;;;;;1.50;1.40;;;;;;;;;;5051371;28;20429;-70
2022/08/11 14:08:54;;;;;;;1.20;1.20;;;;;;;;;;5051176;28;20433;-72
2022/08/11 14:14:06;;;;;;;1.10;1.10;;;;;;;;;;5051829;28;20437;-74
2022/08/11 14:16:35;;;;;;;1.10;1.10;;;;;;;;;;5051655;28;20422;-73
2022/08/11 14:19:05;;;;;;;1.57;1.43;;;;;;;;;;5051074;28;20491;-74
2022/08/11 14:24:20;;;;;;;1.20;1.20;;;;;;;;;;5054811;28;20480;-74
2022/08/11 14:26:47;;;;;;;3.20;1.60;;;;;;;;;;5054501;28;20481;-74
2022/08/11 14:29:14;;;;;;;1.57;1.47;;;;;;;;;;5054326;28;20906;-72
2022/08/11 14:31:44;;;;;;;0.97;0.97;;;;;;;;;;5055259;28;20438;-73
2022/08/11 14:34:11;;;;;;;1.83;1.73;;;;;;;;;;5054299;28;20934;-70
2022/08/11 14:36:44;;;;;;;1.80;1.00;;;;;;;;;;5054665;28;20476;-73
2022/08/11 14:39:16;;;;;;;1.30;1.30;;;;;;;;;;5056509;28;20422;-73
2022/08/11 14:47:14;;;;;;;1.47;1.47;;;;;;;;;;5055530;28;20857;-71
2022/08/11 14:49:42;;;;;;;1.20;1.20;;;;;;;;;;5055475;28;20509;-71
2022/08/11 14:52:09;;;;;;;1.07;1.07;;;;;;;;;;5054446;28;20431;-74
2022/08/11 14:57:21;;;;;;;2.23;1.23;;;;;;;;;;5055215;28;20422;-74
2022/08/11 14:59:49;;;;;;;1.20;1.20;;;;;;;;;;5054045;28;20798;-74
2022/08/11 15:05:01;;;;;;;4.50;1.20;;;;;;;;;;5054617;28;20476;-74
2022/08/11 15:07:28;;;;;;;1.93;1.80;;;;;;;;;;5054523;28;20979;-71
2022/08/11 15:09:56;;;;;;;1.07;1.07;;;;;;;;;;5054007;28;20427;-73
2022/08/11 15:12:22;;;;;;;1.37;1.37;;;;;;;;;;5050046;28;20446;-72
2022/08/11 15:17:54;;;;;;;1.30;1.30;;;;;;;;;;5050470;28;20438;-69
2022/08/11 15:25:57;;;;;;;1.10;1.10;;;;;;;;;;5046515;28;20426;-72
2022/08/11 15:37:25;;;;;;;2.30;1.27;;;;;;;;;;5053343;28;20469;-70
2022/08/11 15:37:25;;;;;;;2.53;1.30;;;;;;;;;;5052344;28;20473;-74
2022/08/11 15:48:28;;;;;;;2.83;1.20;;;;;;;;;;5029535;28;20477;-75
2022/08/11 15:50:55;;;;;;;4.03;1.20;;;;;;;;;;5051143;28;20435;-74
2022/08/11 15:53:33;;;;;;;1.60;1.57;;;;;;;;;;5054214;28;20472;-75
2022/08/11 15:56:00;;;;;;;1.20;1.20;;;;;;;;;;5053464;28;20438;-75
2022/08/11 16:04:11;;;;;;;1.43;1.37;;;;;;;;;;5053651;28;20941;-74
2022/08/11 16:06:40;;;;;;;1.17;1.17;;;;;;;;;;5060492;28;20576;-73
2022/08/11 16:09:06;;;;;;;2.70;1.10;;;;;;;;;;5032788;28;20434;-74
2022/08/11 16:11:34;;;;;;;1.10;1.10;;;;;;;;;;5049539;28;20430;-74
2022/08/11 16:16:48;;;;;;;1.30;1.20;;;;;;;;;;5052467;28;20448;-74
2022/08/11 16:19:15;;;;;;;1.57;1.47;;;;;;;;;;5053264;28;20421;-68
2022/08/11 16:21:42;;;;;;;1.50;1.40;;;;;;;;;;5059079;28;20478;-71
2022/08/11 16:24:10;;;;;;;1.30;1.30;;;;;;;;;;5073087;28;20426;-68
2022/08/11 16:26:38;;;;;;;3.53;1.40;;;;;;;;;;5054723;28;20442;-68
2022/08/11 16:29:05;;;;;;;1.27;1.27;;;;;;;;;;5047591;28;20980;-68
2022/08/11 16:31:32;;;;;;;1.47;1.23;;;;;;;;;;5052052;28;20874;-69
2022/08/11 16:33:59;;;;;;;5.93;1.53;;;;;;;;;;5050654;28;20426;-73
2022/08/11 16:39:11;;;;;;;2.20;1.47;;;;;;;;;;5052591;28;20433;-71
2022/08/11 16:47:17;;;;;;;2.30;1.13;;;;;;;;;;5052510;28;20413;-65
2022/08/11 16:49:47;;;;;;;1.20;1.20;;;;;;;;;;5053267;28;20945;-65
2022/08/11 16:52:13;;;;;;;4.33;1.60;;;;;;;;;;5050529;28;20802;-65
2022/08/11 16:54:40;;;;;;;1.50;1.50;;;;;;;;;;5050679;28;20481;-64
2022/08/11 16:59:54;;;;;;;5.80;1.33;;;;;;;;;;5051761;28;20486;-69
2022/08/11 17:13:38;;;;;;;1.50;1.50;;;;;;;;;;5052919;28;20467;-69
2022/08/11 17:16:10;;;;;;;1.50;1.50;;;;;;;;;;5052798;28;20851;-67
2022/08/11 17:18:39;;;;;;;1.53;1.53;;;;;;;;;;5053038;28;21162;-66
2022/08/11 17:21:06;;;;;;;2.10;2.00;;;;;;;;;;5058168;28;20429;-67
2022/08/11 17:23:51;;;;;;;1.17;1.17;;;;;;;;;;5072259;28;20425;-65
2022/08/11 17:26:18;;;;;;;3.30;1.67;;;;;;;;;;5070286;28;20432;-65
2022/08/11 17:28:44;;;;;;;1.83;1.70;;;;;;;;;;5069388;28;20432;-64
2022/08/11 17:36:43;;;;;;;2.47;1.40;;;;;;;;;;5056093;28;20433;-68
2022/08/11 17:39:11;;;;;;;1.20;1.20;;;;;;;;;;5051680;28;20464;-69
2022/08/11 17:49:53;;;;;;;2.43;1.43;;;;;;;;;;5052219;28;20418;-70
2022/08/11 18:00:35;;;;;;;4.37;2.87;;;;;;;;;;5055564;28;20481;-69
2022/08/11 18:05:48;;;;;;;1.97;1.87;;;;;;;;;;5062797;28;20471;-69
